Time;durP1;ratioP1;P1;durP2;ratioP2;P2;SDS_P1;SDS_P2;PMS_P1;PMS_P2;Temp;Humidity;BMP_temperature;BMP_pressure;BME280_temperature;BME280_humidity;BME280_pressure;Samples;Min_cycle;Max_cycle;Signal;HPM_P1;HPM_P2
2021/03/22 00:00:28;;;;;;;28.70;6.90;;;;;;;;;;4453713;32;20468;-69
2021/03/22 00:02:54;;;;;;;26.70;6.83;;;;;;;;;;4453859;32;20201;-67
2021/03/22 00:05:19;;;;;;;31.93;7.67;;;;;;;;;;4452106;32;20129;-68
2021/03/22 00:07:44;;;;;;;32.50;7.07;;;;;;;;;;4453732;32;20262;-69
2021/03/22 00:10:10;;;;;;;26.97;6.70;;;;;;;;;;4453714;32;20142;-67
2021/03/22 00:12:35;;;;;;;34.93;7.30;;;;;;;;;;4451855;32;20257;-68
2021/03/22 00:15:00;;;;;;;28.47;7.03;;;;;;;;;;4452058;32;20201;-66
2021/03/22 00:17:25;;;;;;;36.23;6.50;;;;;;;;;;4452525;32;20163;-68
2021/03/22 00:19:51;;;;;;;32.27;6.80;;;;;;;;;;4439240;32;20173;-66
2021/03/22 00:22:16;;;;;;;32.97;7.27;;;;;;;;;;4452100;32;20149;-68
2021/03/22 00:24:41;;;;;;;23.27;6.60;;;;;;;;;;4450233;32;22048;-68
2021/03/22 00:27:06;;;;;;;31.60;7.80;;;;;;;;;;4438336;32;20141;-68
2021/03/22 00:29:31;;;;;;;26.40;6.30;;;;;;;;;;4436792;32;20312;-67
2021/03/22 00:31:56;;;;;;;29.17;6.43;;;;;;;;;;4436352;32;20156;-67
2021/03/22 00:34:22;;;;;;;29.92;6.35;;;;;;;;;;4437809;32;20137;-68
2021/03/22 00:36:47;;;;;;;27.67;6.13;;;;;;;;;;4437111;32;20201;-68
2021/03/22 00:39:12;;;;;;;24.93;6.20;;;;;;;;;;4436560;32;20148;-68
2021/03/22 00:41:37;;;;;;;22.63;6.57;;;;;;;;;;4436876;32;20192;-68
2021/03/22 00:44:04;;;;;;;24.77;6.47;;;;;;;;;;4437625;32;20601;-68
2021/03/22 00:46:29;;;;;;;34.57;6.43;;;;;;;;;;4437667;32;20650;-67
2021/03/22 00:48:54;;;;;;;28.13;6.57;;;;;;;;;;4436499;32;20303;-67
2021/03/22 00:51:20;;;;;;;29.67;6.57;;;;;;;;;;4436103;32;20194;-68
2021/03/22 00:53:45;;;;;;;29.60;6.93;;;;;;;;;;4437366;32;20184;-68
2021/03/22 00:56:10;;;;;;;21.37;5.97;;;;;;;;;;4435841;32;20213;-67
2021/03/22 00:58:35;;;;;;;22.80;6.10;;;;;;;;;;4435751;32;20137;-69
2021/03/22 01:01:01;;;;;;;19.80;5.97;;;;;;;;;;4436583;32;20538;-69
2021/03/22 01:03:30;;;;;;;25.33;5.73;;;;;;;;;;4437034;32;20130;-68
2021/03/22 01:05:55;;;;;;;24.73;5.87;;;;;;;;;;4437455;32;20181;-67
2021/03/22 01:08:21;;;;;;;24.07;6.07;;;;;;;;;;4436178;32;20205;-68
2021/03/22 01:10:48;;;;;;;23.37;6.10;;;;;;;;;;4435597;32;20194;-70
2021/03/22 01:13:16;;;;;;;29.73;6.13;;;;;;;;;;4435978;32;20160;-66
2021/03/22 01:15:42;;;;;;;25.73;6.47;;;;;;;;;;4436374;32;20129;-68
2021/03/22 01:18:07;;;;;;;22.63;6.23;;;;;;;;;;4435439;32;20164;-68
2021/03/22 01:20:35;;;;;;;28.07;6.33;;;;;;;;;;4437775;32;20219;-69
2021/03/22 01:23:00;;;;;;;24.20;5.77;;;;;;;;;;4436781;32;20212;-69
2021/03/22 01:25:25;;;;;;;24.80;5.67;;;;;;;;;;4442543;32;20167;-69
2021/03/22 01:27:51;;;;;;;24.13;6.23;;;;;;;;;;4452687;32;20190;-67
2021/03/22 01:30:19;;;;;;;28.70;6.40;;;;;;;;;;4451869;32;20534;-69
2021/03/22 01:32:44;;;;;;;22.27;6.67;;;;;;;;;;4432194;32;20501;-68
2021/03/22 01:35:10;;;;;;;24.73;6.23;;;;;;;;;;4436996;32;20175;-68
2021/03/22 01:37:35;;;;;;;26.73;6.43;;;;;;;;;;4437345;32;20248;-68
2021/03/22 01:40:00;;;;;;;20.57;6.00;;;;;;;;;;4435681;32;20137;-68
2021/03/22 01:42:58;;;;;;;27.50;6.63;;;;;;;;;;4434143;32;20162;-70
2021/03/22 01:45:23;;;;;;;18.43;5.20;;;;;;;;;;4409263;32;20157;-68
2021/03/22 01:47:48;;;;;;;29.10;6.53;;;;;;;;;;4436449;32;20217;-68
2021/03/22 01:50:20;;;;;;;25.00;6.23;;;;;;;;;;4436733;32;20156;-67
2021/03/22 01:52:46;;;;;;;27.47;6.63;;;;;;;;;;4437202;32;20639;-68
2021/03/22 01:55:13;;;;;;;29.50;5.83;;;;;;;;;;4435542;32;20200;-68
2021/03/22 01:57:39;;;;;;;24.30;5.73;;;;;;;;;;4435389;32;20172;-69
2021/03/22 02:00:14;;;;;;;26.03;6.30;;;;;;;;;;4437309;32;20192;-69
2021/03/22 02:02:40;;;;;;;24.40;6.27;;;;;;;;;;4450612;32;20160;-68
2021/03/22 02:05:07;;;;;;;28.17;6.47;;;;;;;;;;4452016;32;20168;-68
2021/03/22 02:07:32;;;;;;;32.47;6.27;;;;;;;;;;4450821;32;20509;-68
2021/03/22 02:09:57;;;;;;;29.80;6.63;;;;;;;;;;4450843;32;20137;-68
2021/03/22 02:12:23;;;;;;;29.53;7.07;;;;;;;;;;4450336;32;20163;-68
2021/03/22 02:14:49;;;;;;;25.27;6.53;;;;;;;;;;4450109;32;20176;-67
2021/03/22 02:17:20;;;;;;;29.33;7.30;;;;;;;;;;4450600;32;20197;-68
2021/03/22 02:19:45;;;;;;;28.10;6.40;;;;;;;;;;4452282;32;20187;-68
2021/03/22 02:22:30;;;;;;;31.73;6.57;;;;;;;;;;4450968;32;20477;-68
2021/03/22 02:25:04;;;;;;;28.80;7.53;;;;;;;;;;4452055;32;20181;-68
2021/03/22 02:27:32;;;;;;;25.60;7.80;;;;;;;;;;4452076;32;20207;-68
2021/03/22 02:30:00;;;;;;;29.63;7.10;;;;;;;;;;4436476;32;20187;-68
2021/03/22 02:32:44;;;;;;;28.53;7.13;;;;;;;;;;4451854;32;20601;-67
2021/03/22 02:35:10;;;;;;;29.50;6.97;;;;;;;;;;4450463;32;20194;-67
2021/03/22 02:37:37;;;;;;;21.83;6.03;;;;;;;;;;4450360;32;20177;-68
2021/03/22 02:40:05;;;;;;;24.70;6.13;;;;;;;;;;4450070;32;20133;-67
2021/03/22 02:42:31;;;;;;;35.63;6.90;;;;;;;;;;4451194;32;20141;-68
2021/03/22 02:44:56;;;;;;;24.93;6.73;;;;;;;;;;4435966;32;20241;-67
2021/03/22 02:47:24;;;;;;;28.90;7.00;;;;;;;;;;4449737;32;20567;-67
2021/03/22 02:49:49;;;;;;;28.97;7.20;;;;;;;;;;4450528;32;20140;-67
2021/03/22 02:52:20;;;;;;;35.07;8.23;;;;;;;;;;4451715;32;20179;-67
2021/03/22 02:54:48;;;;;;;36.77;8.30;;;;;;;;;;4449730;32;20535;-67
2021/03/22 02:57:16;;;;;;;34.90;6.93;;;;;;;;;;4450039;32;20133;-69
2021/03/22 02:59:52;;;;;;;27.90;7.43;;;;;;;;;;4452071;32;20494;-66
2021/03/22 03:02:17;;;;;;;26.03;7.10;;;;;;;;;;4451644;32;20480;-66
2021/03/22 03:04:43;;;;;;;32.50;7.60;;;;;;;;;;4435806;32;20188;-67
2021/03/22 03:07:10;;;;;;;31.23;7.03;;;;;;;;;;4451989;32;20205;-67
2021/03/22 03:09:36;;;;;;;30.47;7.30;;;;;;;;;;4436184;32;20755;-66
2021/03/22 03:12:20;;;;;;;28.40;7.17;;;;;;;;;;4451801;32;20145;-68
2021/03/22 03:14:47;;;;;;;30.23;6.87;;;;;;;;;;4449738;32;20556;-68
2021/03/22 03:17:12;;;;;;;34.43;7.27;;;;;;;;;;4451310;32;20196;-67
2021/03/22 03:19:37;;;;;;;32.07;8.73;;;;;;;;;;4450145;32;20261;-67
2021/03/22 03:22:03;;;;;;;30.27;7.77;;;;;;;;;;4450654;32;20171;-67
2021/03/22 03:24:28;;;;;;;30.00;7.87;;;;;;;;;;4454483;32;20247;-66
2021/03/22 03:26:53;;;;;;;34.67;6.43;;;;;;;;;;4452494;32;20153;-67
2021/03/22 03:29:19;;;;;;;29.53;6.47;;;;;;;;;;4452364;32;20512;-67
2021/03/22 03:31:44;;;;;;;27.63;6.13;;;;;;;;;;4438274;32;20209;-67
2021/03/22 03:34:09;;;;;;;31.97;6.70;;;;;;;;;;4452313;32;20503;-68
2021/03/22 03:36:35;;;;;;;28.10;6.33;;;;;;;;;;4436883;32;20181;-68
2021/03/22 03:39:00;;;;;;;27.40;5.17;;;;;;;;;;4437299;32;20535;-68
2021/03/22 03:41:25;;;;;;;18.80;5.57;;;;;;;;;;4436865;32;20168;-67
2021/03/22 03:43:51;;;;;;;31.57;6.67;;;;;;;;;;4436960;32;20173;-68
2021/03/22 03:46:16;;;;;;;29.57;6.67;;;;;;;;;;4438305;32;20558;-68
2021/03/22 03:48:41;;;;;;;24.57;5.60;;;;;;;;;;4437070;32;20183;-69
2021/03/22 03:51:06;;;;;;;31.67;7.03;;;;;;;;;;4422762;32;20497;-66
2021/03/22 03:53:31;;;;;;;26.27;5.20;;;;;;;;;;4437834;32;20190;-66
2021/03/22 03:55:58;;;;;;;20.67;4.77;;;;;;;;;;4438528;32;20156;-68
2021/03/22 03:58:23;;;;;;;18.93;4.40;;;;;;;;;;4437198;32;20137;-68
2021/03/22 04:00:49;;;;;;;22.23;4.93;;;;;;;;;;4438139;32;20184;-69
2021/03/22 04:03:26;;;;;;;21.27;4.90;;;;;;;;;;4436400;32;20222;-68
2021/03/22 04:05:52;;;;;;;20.80;4.87;;;;;;;;;;4436478;32;20213;-69
2021/03/22 04:08:18;;;;;;;25.17;5.03;;;;;;;;;;4436632;32;20501;-67
2021/03/22 04:10:43;;;;;;;21.20;5.50;;;;;;;;;;4422374;32;20652;-70
2021/03/22 04:13:08;;;;;;;22.13;5.00;;;;;;;;;;4453502;32;20137;-70
2021/03/22 04:15:34;;;;;;;26.40;5.53;;;;;;;;;;4453155;32;20134;-67
2021/03/22 04:17:59;;;;;;;24.77;5.33;;;;;;;;;;4452100;32;20129;-67
2021/03/22 04:20:24;;;;;;;20.00;5.13;;;;;;;;;;4453345;32;20137;-66
2021/03/22 04:22:49;;;;;;;22.37;4.47;;;;;;;;;;4452126;32;20131;-69
2021/03/22 04:25:14;;;;;;;23.45;4.43;;;;;;;;;;4453804;32;20133;-68
2021/03/22 04:27:39;;;;;;;21.40;4.30;;;;;;;;;;4452736;32;20136;-67
2021/03/22 04:30:06;;;;;;;21.00;4.10;;;;;;;;;;4452157;32;20438;-67
2021/03/22 04:32:31;;;;;;;18.53;4.73;;;;;;;;;;4451693;32;20212;-68
2021/03/22 04:34:56;;;;;;;18.40;3.70;;;;;;;;;;4452697;32;20443;-68
2021/03/22 04:37:21;;;;;;;21.55;4.32;;;;;;;;;;4451646;32;20197;-66
2021/03/22 04:39:46;;;;;;;24.30;4.60;;;;;;;;;;4453763;32;20171;-67
2021/03/22 04:42:12;;;;;;;25.57;4.00;;;;;;;;;;4453715;32;20159;-67
2021/03/22 04:44:37;;;;;;;22.63;4.27;;;;;;;;;;4453741;32;20137;-68
2021/03/22 04:47:02;;;;;;;20.33;4.70;;;;;;;;;;4452907;32;20148;-69
2021/03/22 04:49:27;;;;;;;22.10;4.00;;;;;;;;;;4452147;32;20179;-67
2021/03/22 04:51:52;;;;;;;17.57;3.70;;;;;;;;;;4453069;32;20138;-67
2021/03/22 04:54:17;;;;;;;18.03;3.63;;;;;;;;;;4450928;32;20224;-66
2021/03/22 04:56:42;;;;;;;28.40;4.10;;;;;;;;;;4451317;32;20271;-67
2021/03/22 04:59:08;;;;;;;23.13;4.27;;;;;;;;;;4451517;32;20134;-67
2021/03/22 05:01:33;;;;;;;20.23;4.67;;;;;;;;;;4452914;32;20167;-69
2021/03/22 05:03:58;;;;;;;15.03;3.10;;;;;;;;;;4451312;32;20137;-68
2021/03/22 05:06:23;;;;;;;18.97;3.57;;;;;;;;;;4451218;32;20136;-66
2021/03/22 05:08:48;;;;;;;13.70;3.57;;;;;;;;;;4452640;32;20470;-66
2021/03/22 05:11:17;;;;;;;21.67;3.20;;;;;;;;;;4453152;32;20201;-67
2021/03/22 05:13:42;;;;;;;19.13;3.47;;;;;;;;;;4445158;32;20327;-66
2021/03/22 05:16:08;;;;;;;14.70;3.53;;;;;;;;;;4435587;32;20468;-68
2021/03/22 05:18:33;;;;;;;22.77;3.63;;;;;;;;;;4437184;32;20193;-65
2021/03/22 05:21:01;;;;;;;16.60;3.67;;;;;;;;;;4435377;32;20146;-67
2021/03/22 05:23:27;;;;;;;20.00;3.83;;;;;;;;;;4435708;32;20141;-66
2021/03/22 05:25:53;;;;;;;20.47;3.97;;;;;;;;;;4436058;32;20145;-67
2021/03/22 05:28:20;;;;;;;16.40;3.90;;;;;;;;;;4437046;32;20133;-65
2021/03/22 05:30:45;;;;;;;18.17;3.50;;;;;;;;;;4435157;32;20207;-66
2021/03/22 05:33:12;;;;;;;18.40;3.50;;;;;;;;;;4440989;32;20164;-67
2021/03/22 05:35:38;;;;;;;17.00;4.10;;;;;;;;;;4438251;32;20508;-68
2021/03/22 05:38:04;;;;;;;14.67;3.10;;;;;;;;;;4450353;32;20142;-68
2021/03/22 05:40:40;;;;;;;18.80;3.83;;;;;;;;;;4450525;32;20613;-67
2021/03/22 05:43:34;;;;;;;19.90;3.90;;;;;;;;;;4450988;32;20128;-67
2021/03/22 05:46:04;;;;;;;15.63;3.70;;;;;;;;;;4433129;32;20198;-67
2021/03/22 05:48:47;;;;;;;16.23;3.17;;;;;;;;;;4450770;32;20184;-64
2021/03/22 05:51:28;;;;;;;17.77;3.70;;;;;;;;;;4450254;32;20458;-66
2021/03/22 05:53:53;;;;;;;15.73;3.40;;;;;;;;;;4452117;32;20171;-67
2021/03/22 05:56:30;;;;;;;16.47;3.53;;;;;;;;;;4452080;32;20526;-67
2021/03/22 05:59:18;;;;;;;13.47;4.13;;;;;;;;;;4450723;32;20260;-67
2021/03/22 06:01:45;;;;;;;15.30;3.50;;;;;;;;;;4451072;32;20176;-67
2021/03/22 06:04:39;;;;;;;15.10;3.50;;;;;;;;;;4450161;32;20538;-66
2021/03/22 06:07:05;;;;;;;16.73;4.00;;;;;;;;;;4433464;32;20225;-66
2021/03/22 06:09:41;;;;;;;14.37;3.50;;;;;;;;;;4436067;32;20664;-67
2021/03/22 06:12:17;;;;;;;20.27;4.13;;;;;;;;;;4452217;32;20155;-66
2021/03/22 06:14:50;;;;;;;16.43;3.87;;;;;;;;;;4450371;32;20483;-66
2021/03/22 06:17:18;;;;;;;15.40;3.63;;;;;;;;;;4437793;32;20212;-65
2021/03/22 06:19:58;;;;;;;11.67;3.13;;;;;;;;;;4450524;32;20134;-66
2021/03/22 06:22:31;;;;;;;16.90;3.60;;;;;;;;;;4452282;32;20133;-67
2021/03/22 06:24:57;;;;;;;12.77;3.03;;;;;;;;;;4450060;32;20152;-66
2021/03/22 06:27:22;;;;;;;15.03;3.40;;;;;;;;;;4449960;32;20161;-64
2021/03/22 06:29:48;;;;;;;15.40;3.97;;;;;;;;;;4449704;32;20141;-66
2021/03/22 06:32:18;;;;;;;13.97;3.27;;;;;;;;;;4450091;32;20527;-67
2021/03/22 06:34:51;;;;;;;19.90;3.97;;;;;;;;;;4434624;32;20557;-66
2021/03/22 06:37:17;;;;;;;17.73;4.00;;;;;;;;;;4436366;32;20180;-66
2021/03/22 06:39:43;;;;;;;19.67;4.13;;;;;;;;;;4436860;32;20145;-67
2021/03/22 06:42:18;;;;;;;14.57;3.60;;;;;;;;;;4421171;32;20184;-66
2021/03/22 06:44:44;;;;;;;15.00;4.07;;;;;;;;;;4435943;32;20208;-69
2021/03/22 06:47:11;;;;;;;18.97;4.63;;;;;;;;;;4436056;32;20171;-69
2021/03/22 06:49:38;;;;;;;16.23;4.20;;;;;;;;;;4435039;32;20552;-68
2021/03/22 06:52:05;;;;;;;14.00;4.30;;;;;;;;;;4434617;32;20150;-69
2021/03/22 06:54:36;;;;;;;12.67;4.23;;;;;;;;;;4434136;32;20240;-68
2021/03/22 06:57:06;;;;;;;13.80;4.17;;;;;;;;;;4436959;32;20141;-67
2021/03/22 06:59:31;;;;;;;18.77;4.47;;;;;;;;;;4438085;32;20180;-67
2021/03/22 07:02:09;;;;;;;11.93;4.20;;;;;;;;;;4438218;32;20216;-69
2021/03/22 07:04:37;;;;;;;14.87;3.90;;;;;;;;;;4438621;32;20545;-67
2021/03/22 07:07:15;;;;;;;11.27;4.13;;;;;;;;;;4438394;32;20520;-68
2021/03/22 07:10:00;;;;;;;13.23;3.77;;;;;;;;;;4452702;32;20167;-69
2021/03/22 07:12:25;;;;;;;13.93;3.60;;;;;;;;;;4452022;32;20602;-67
2021/03/22 07:14:51;;;;;;;13.10;3.73;;;;;;;;;;4452538;32;20137;-68
2021/03/22 07:17:18;;;;;;;9.93;3.90;;;;;;;;;;4453919;32;20500;-69
2021/03/22 07:20:00;;;;;;;13.80;4.00;;;;;;;;;;4437544;32;20463;-66
2021/03/22 07:22:26;;;;;;;16.43;4.20;;;;;;;;;;4436780;32;20264;-67
2021/03/22 07:24:59;;;;;;;10.43;3.10;;;;;;;;;;4451517;32;20157;-66
2021/03/22 07:27:33;;;;;;;12.10;3.33;;;;;;;;;;4450831;32;20145;-69
2021/03/22 07:29:58;;;;;;;10.67;3.60;;;;;;;;;;4444276;32;20497;-70
2021/03/22 07:32:44;;;;;;;10.60;3.73;;;;;;;;;;4437602;32;20291;-67
2021/03/22 07:35:18;;;;;;;11.43;2.57;;;;;;;;;;4452512;32;20187;-67
2021/03/22 07:38:01;;;;;;;10.33;2.87;;;;;;;;;;4426802;32;20221;-66
2021/03/22 07:40:36;;;;;;;13.50;2.83;;;;;;;;;;4441375;32;20298;-69
2021/03/22 07:43:06;;;;;;;11.80;3.13;;;;;;;;;;4434856;32;20192;-69
2021/03/22 07:45:38;;;;;;;13.37;3.53;;;;;;;;;;4433063;32;20443;-69
2021/03/22 07:48:03;;;;;;;16.30;3.37;;;;;;;;;;4451081;32;20216;-67
2021/03/22 07:50:31;;;;;;;11.83;2.83;;;;;;;;;;4451503;32;20152;-69
2021/03/22 07:53:00;;;;;;;2.97;1.50;;;;;;;;;;4423194;32;20201;-69
2021/03/22 07:55:44;;;;;;;5.30;1.80;;;;;;;;;;4453011;32;20288;-68
2021/03/22 07:58:28;;;;;;;8.97;1.70;;;;;;;;;;4451885;32;20153;-70
2021/03/22 08:00:59;;;;;;;6.73;1.37;;;;;;;;;;4450265;32;20154;-67
2021/03/22 08:03:25;;;;;;;4.60;1.80;;;;;;;;;;4434314;32;20162;-67
2021/03/22 08:06:09;;;;;;;4.63;1.53;;;;;;;;;;4431813;32;20199;-69
2021/03/22 08:08:35;;;;;;;6.30;1.50;;;;;;;;;;4451052;32;20190;-67
2021/03/22 08:11:06;;;;;;;3.03;1.00;;;;;;;;;;4452170;32;20518;-65
2021/03/22 08:13:44;;;;;;;3.77;1.10;;;;;;;;;;4453190;32;20148;-67
2021/03/22 08:16:23;;;;;;;8.57;1.23;;;;;;;;;;4438662;32;20186;-66
2021/03/22 08:18:53;;;;;;;3.87;1.23;;;;;;;;;;4452007;32;20133;-69
2021/03/22 08:21:22;;;;;;;2.97;1.23;;;;;;;;;;4451252;32;20208;-67
2021/03/22 08:23:51;;;;;;;2.77;1.10;;;;;;;;;;4436563;32;20168;-68
2021/03/22 08:26:20;;;;;;;2.53;1.03;;;;;;;;;;4446800;32;20615;-70
2021/03/22 08:28:53;;;;;;;2.80;1.10;;;;;;;;;;4451464;32;20233;-68
2021/03/22 08:31:24;;;;;;;3.17;1.20;;;;;;;;;;4451240;32;20232;-70
2021/03/22 08:33:53;;;;;;;5.27;1.30;;;;;;;;;;4445987;32;20176;-67
2021/03/22 08:36:21;;;;;;;6.63;1.50;;;;;;;;;;4451161;32;20481;-70
2021/03/22 08:38:53;;;;;;;6.07;1.40;;;;;;;;;;4451010;32;20184;-68
2021/03/22 08:41:43;;;;;;;7.60;1.50;;;;;;;;;;4448977;32;20165;-69
2021/03/22 08:44:27;;;;;;;5.23;1.50;;;;;;;;;;4436753;32;20593;-68
2021/03/22 08:47:01;;;;;;;3.30;1.30;;;;;;;;;;4451489;32;20183;-67
2021/03/22 08:49:46;;;;;;;4.07;1.40;;;;;;;;;;4450688;32;20204;-71
2021/03/22 08:52:31;;;;;;;5.77;1.40;;;;;;;;;;4450345;32;20160;-71
2021/03/22 08:55:15;;;;;;;3.80;1.20;;;;;;;;;;4451097;32;20134;-68
2021/03/22 08:57:59;;;;;;;4.57;1.40;;;;;;;;;;4448933;32;20145;-69
2021/03/22 09:00:33;;;;;;;5.90;1.70;;;;;;;;;;4435365;32;20195;-73
2021/03/22 09:03:01;;;;;;;3.63;1.30;;;;;;;;;;4445434;32;20191;-69
2021/03/22 09:05:27;;;;;;;4.73;1.30;;;;;;;;;;4436913;32;20226;-70
2021/03/22 09:08:13;;;;;;;4.40;1.60;;;;;;;;;;4448613;32;20138;-68
2021/03/22 09:10:40;;;;;;;7.20;1.57;;;;;;;;;;4435482;32;20149;-69
2021/03/22 09:13:14;;;;;;;7.35;1.55;;;;;;;;;;4446499;32;20212;-70
2021/03/22 09:15:41;;;;;;;5.30;1.37;;;;;;;;;;4433585;32;20195;-70
2021/03/22 09:18:14;;;;;;;6.43;1.60;;;;;;;;;;4450887;32;20255;-69
2021/03/22 09:20:45;;;;;;;4.77;1.67;;;;;;;;;;4450825;32;20179;-68
2021/03/22 09:23:36;;;;;;;9.70;1.67;;;;;;;;;;4450114;32;20153;-68
2021/03/22 09:26:09;;;;;;;3.53;1.70;;;;;;;;;;4434283;32;20608;-70
2021/03/22 09:28:49;;;;;;;7.63;1.20;;;;;;;;;;4449712;32;20140;-71
2021/03/22 09:31:16;;;;;;;4.50;1.50;;;;;;;;;;4450766;32;20152;-67
2021/03/22 09:33:51;;;;;;;4.73;1.17;;;;;;;;;;4450459;32;20149;-72
2021/03/22 09:36:25;;;;;;;6.67;1.17;;;;;;;;;;4451070;32;20176;-70
2021/03/22 09:38:50;;;;;;;2.13;1.00;;;;;;;;;;4450849;32;20129;-71
2021/03/22 09:41:15;;;;;;;6.30;1.00;;;;;;;;;;4450057;32;20176;-73
2021/03/22 09:43:42;;;;;;;2.93;0.80;;;;;;;;;;4450328;32;20216;-72
2021/03/22 09:46:27;;;;;;;3.17;0.80;;;;;;;;;;4449888;32;20184;-72
2021/03/22 09:49:12;;;;;;;3.70;1.17;;;;;;;;;;4433193;32;20230;-72
2021/03/22 09:51:42;;;;;;;5.37;0.97;;;;;;;;;;4436243;32;20207;-72
2021/03/22 09:54:19;;;;;;;4.53;1.20;;;;;;;;;;4449763;32;20165;-72
2021/03/22 09:57:03;;;;;;;4.30;1.23;;;;;;;;;;4450412;32;20133;-72
2021/03/22 09:59:32;;;;;;;5.00;1.40;;;;;;;;;;4779078;26;20295;-72
2021/03/22 10:01:58;;;;;;;4.40;1.10;;;;;;;;;;4398622;32;20187;-69
2021/03/22 10:04:31;;;;;;;3.78;1.20;;;;;;;;;;4396200;32;20166;-70
2021/03/22 10:06:59;;;;;;;4.50;1.40;;;;;;;;;;4404591;32;20161;-69
2021/03/22 10:09:27;;;;;;;2.17;1.23;;;;;;;;;;4403748;32;20264;-71
2021/03/22 10:11:53;;;;;;;4.40;1.40;;;;;;;;;;4405244;32;20141;-70
2021/03/22 10:14:22;;;;;;;3.62;1.30;;;;;;;;;;4405141;32;20572;-70
2021/03/22 10:16:50;;;;;;;3.10;1.10;;;;;;;;;;4406022;32;20507;-70
2021/03/22 10:19:23;;;;;;;1.60;0.75;;;;;;;;;;4405639;32;20213;-70
2021/03/22 10:21:50;;;;;;;1.20;0.50;;;;;;;;;;4389928;32;20594;-70
2021/03/22 10:24:21;;;;;;;1.00;0.60;;;;;;;;;;4398675;32;20171;-70
2021/03/22 10:26:47;;;;;;;2.40;0.50;;;;;;;;;;4394674;32;20208;-70
2021/03/22 10:29:33;;;;;;;2.42;0.60;;;;;;;;;;4396393;32;20327;-69
2021/03/22 10:32:03;;;;;;;1.77;0.60;;;;;;;;;;4405178;32;20268;-70
2021/03/22 10:34:30;;;;;;;2.20;0.80;;;;;;;;;;4394033;32;20605;-70
2021/03/22 10:37:03;;;;;;;1.37;0.80;;;;;;;;;;4393046;32;20162;-70
2021/03/22 10:39:31;;;;;;;1.05;0.60;;;;;;;;;;4392092;32;20215;-70
2021/03/22 10:41:56;;;;;;;2.08;0.70;;;;;;;;;;4392043;32;20586;-69
2021/03/22 10:44:23;;;;;;;1.60;0.70;;;;;;;;;;4393624;32;20130;-70
2021/03/22 10:47:00;;;;;;;3.00;0.68;;;;;;;;;;4391998;32;20242;-70
2021/03/22 10:49:25;;;;;;;2.20;0.57;;;;;;;;;;4393422;32;20185;-70
2021/03/22 10:51:52;;;;;;;2.30;0.60;;;;;;;;;;4394280;32;20612;-70
2021/03/22 10:54:19;;;;;;;2.00;0.68;;;;;;;;;;4406343;32;20168;-71
2021/03/22 10:56:53;;;;;;;3.50;0.88;;;;;;;;;;4407218;32;20130;-71
2021/03/22 10:59:20;;;;;;;1.90;0.60;;;;;;;;;;4392631;32;20666;-70
2021/03/22 11:01:50;;;;;;;3.87;0.63;;;;;;;;;;4407302;32;20247;-70
2021/03/22 11:04:17;;;;;;;4.30;0.60;;;;;;;;;;4422112;32;20201;-69
2021/03/22 11:06:44;;;;;;;2.70;0.60;;;;;;;;;;4407921;32;20218;-70
2021/03/22 11:09:15;;;;;;;0.83;0.50;;;;;;;;;;4406884;32;20142;-70
2021/03/22 11:11:40;;;;;;;1.37;0.63;;;;;;;;;;4408212;32;20133;-69
2021/03/22 11:14:06;;;;;;;2.37;0.70;;;;;;;;;;4393756;32;20472;-72
2021/03/22 11:16:33;;;;;;;3.80;0.90;;;;;;;;;;4394444;32;20652;-70
2021/03/22 11:18:59;;;;;;;1.00;0.60;;;;;;;;;;4406033;32;20242;-70
2021/03/22 11:21:25;;;;;;;2.37;0.70;;;;;;;;;;4396004;32;20177;-70
2021/03/22 11:23:53;;;;;;;2.90;0.70;;;;;;;;;;4405162;32;20146;-70
2021/03/22 11:26:25;;;;;;;2.20;0.70;;;;;;;;;;4406545;32;20277;-70
2021/03/22 11:28:51;;;;;;;2.33;0.80;;;;;;;;;;4399589;32;20134;-71
2021/03/22 11:31:23;;;;;;;4.93;1.00;;;;;;;;;;4393314;32;20153;-70
2021/03/22 11:33:57;;;;;;;4.95;0.80;;;;;;;;;;4385954;32;20276;-70
2021/03/22 11:36:30;;;;;;;2.60;0.88;;;;;;;;;;4403594;32;20462;-72
2021/03/22 11:38:57;;;;;;;1.83;0.88;;;;;;;;;;4405963;32;20762;-71
2021/03/22 11:41:22;;;;;;;3.95;0.80;;;;;;;;;;4391598;32;20620;-70
2021/03/22 11:43:59;;;;;;;2.12;0.80;;;;;;;;;;4404609;32;20472;-71
2021/03/22 11:46:24;;;;;;;3.33;0.70;;;;;;;;;;4391193;32;20582;-71
2021/03/22 11:48:49;;;;;;;5.55;0.90;;;;;;;;;;4392870;32;20593;-70
2021/03/22 11:51:15;;;;;;;5.77;1.00;;;;;;;;;;4398573;32;20134;-71
2021/03/22 11:53:57;;;;;;;7.00;1.10;;;;;;;;;;4390362;32;20452;-71
2021/03/22 11:56:27;;;;;;;2.30;0.67;;;;;;;;;;4391974;32;20184;-70
2021/03/22 11:59:05;;;;;;;4.17;0.80;;;;;;;;;;4392543;32;20157;-71
2021/03/22 12:01:30;;;;;;;3.73;0.80;;;;;;;;;;4405211;32;20279;-71
2021/03/22 12:04:12;;;;;;;1.45;0.50;;;;;;;;;;4406249;32;20143;-71
2021/03/22 12:06:50;;;;;;;1.23;0.50;;;;;;;;;;4406838;32;20650;-70
2021/03/22 12:09:16;;;;;;;2.30;0.67;;;;;;;;;;4391776;32;20180;-72
2021/03/22 12:11:41;;;;;;;2.00;0.60;;;;;;;;;;4405966;32;20197;-70
2021/03/22 12:14:06;;;;;;;2.27;0.40;;;;;;;;;;4407730;32;20203;-71
2021/03/22 12:16:33;;;;;;;1.60;0.40;;;;;;;;;;4410094;32;20279;-71
2021/03/22 12:19:03;;;;;;;2.23;0.50;;;;;;;;;;4408437;32;20250;-70
2021/03/22 12:21:28;;;;;;;1.57;0.60;;;;;;;;;;4406671;32;20170;-70
2021/03/22 12:23:53;;;;;;;1.87;0.53;;;;;;;;;;4415052;32;20169;-71
2021/03/22 12:26:19;;;;;;;1.77;0.90;;;;;;;;;;4408444;32;20268;-72
2021/03/22 12:28:55;;;;;;;2.87;0.67;;;;;;;;;;4401079;32;20139;-71
2021/03/22 12:31:26;;;;;;;1.70;0.53;;;;;;;;;;4400590;32;20141;-70
2021/03/22 12:33:52;;;;;;;1.35;0.60;;;;;;;;;;4387695;32;20162;-71
2021/03/22 12:36:17;;;;;;;2.47;0.50;;;;;;;;;;4403852;32;20138;-71
2021/03/22 12:38:42;;;;;;;0.97;0.60;;;;;;;;;;4405236;32;20192;-70
2021/03/22 12:41:08;;;;;;;1.30;0.60;;;;;;;;;;4405308;32;20157;-71
2021/03/22 12:43:33;;;;;;;0.50;0.50;;;;;;;;;;4392197;32;20205;-71
2021/03/22 12:45:59;;;;;;;1.02;0.50;;;;;;;;;;4405443;32;20146;-71
2021/03/22 12:48:24;;;;;;;3.00;0.70;;;;;;;;;;4390832;32;20158;-70
2021/03/22 12:50:49;;;;;;;0.93;0.60;;;;;;;;;;4419652;32;20180;-70
2021/03/22 12:53:15;;;;;;;2.37;0.57;;;;;;;;;;4419392;32;20164;-71
2021/03/22 12:55:40;;;;;;;2.37;0.50;;;;;;;;;;4419038;32;20202;-70
2021/03/22 12:58:20;;;;;;;2.17;0.62;;;;;;;;;;4401553;32;20204;-71
2021/03/22 13:00:46;;;;;;;1.67;0.60;;;;;;;;;;4398787;32;20169;-71
2021/03/22 13:03:15;;;;;;;2.33;0.70;;;;;;;;;;4389837;32;20156;-71
2021/03/22 13:05:41;;;;;;;2.35;0.77;;;;;;;;;;4401269;32;20138;-71
2021/03/22 13:08:06;;;;;;;1.17;0.80;;;;;;;;;;4405397;32;20157;-72
2021/03/22 13:10:32;;;;;;;2.00;0.60;;;;;;;;;;4408047;32;20178;-72
2021/03/22 13:12:58;;;;;;;2.20;0.70;;;;;;;;;;4406224;32;20160;-70
2021/03/22 13:15:23;;;;;;;1.20;0.50;;;;;;;;;;4416479;32;20257;-71
2021/03/22 13:17:48;;;;;;;1.37;0.60;;;;;;;;;;4406871;32;20559;-70
2021/03/22 13:20:14;;;;;;;1.25;0.75;;;;;;;;;;4400713;32;20162;-70
2021/03/22 13:22:39;;;;;;;1.33;0.60;;;;;;;;;;4391727;32;20177;-71
2021/03/22 13:25:05;;;;;;;1.85;0.60;;;;;;;;;;4394159;32;20225;-71
2021/03/22 13:27:30;;;;;;;1.23;0.60;;;;;;;;;;4386163;32;20242;-70
2021/03/22 13:29:55;;;;;;;1.70;0.67;;;;;;;;;;4397130;32;20208;-71
2021/03/22 13:32:20;;;;;;;0.95;0.60;;;;;;;;;;4403969;32;20190;-71
2021/03/22 13:34:46;;;;;;;1.13;0.60;;;;;;;;;;4405951;32;20202;-71
2021/03/22 13:37:15;;;;;;;3.20;0.75;;;;;;;;;;4419404;32;20126;-71
2021/03/22 13:39:40;;;;;;;1.12;0.70;;;;;;;;;;4420196;32;20220;-71
2021/03/22 13:42:05;;;;;;;3.90;0.60;;;;;;;;;;4420213;32;20575;-72
2021/03/22 13:44:31;;;;;;;1.83;0.50;;;;;;;;;;4403879;32;20173;-70
2021/03/22 13:46:56;;;;;;;1.02;0.70;;;;;;;;;;4399540;32;20647;-71
2021/03/22 13:49:21;;;;;;;3.58;0.82;;;;;;;;;;4400493;32;20143;-69
2021/03/22 13:51:46;;;;;;;1.70;0.60;;;;;;;;;;4398966;32;20955;-70
2021/03/22 13:54:17;;;;;;;3.12;0.82;;;;;;;;;;4378679;32;20165;-72
2021/03/22 13:56:43;;;;;;;1.52;0.80;;;;;;;;;;4393720;32;20146;-70
2021/03/22 13:59:15;;;;;;;4.32;0.70;;;;;;;;;;4399472;32;20631;-71
2021/03/22 14:01:40;;;;;;;1.50;0.70;;;;;;;;;;4410296;32;20237;-70
2021/03/22 14:04:05;;;;;;;4.72;0.70;;;;;;;;;;4394906;32;20493;-71
2021/03/22 14:06:30;;;;;;;0.82;0.60;;;;;;;;;;4417168;32;20302;-71
2021/03/22 14:08:56;;;;;;;3.10;0.80;;;;;;;;;;4389821;32;20146;-71
2021/03/22 14:11:21;;;;;;;2.62;0.88;;;;;;;;;;4396926;32;20170;-71
2021/03/22 14:13:46;;;;;;;1.55;0.80;;;;;;;;;;4415461;32;20134;-70
2021/03/22 14:16:11;;;;;;;0.70;0.70;;;;;;;;;;4419757;32;20676;-70
2021/03/22 14:18:40;;;;;;;1.98;1.00;;;;;;;;;;4419089;32;20152;-71
2021/03/22 14:21:05;;;;;;;2.20;0.80;;;;;;;;;;4406631;32;20586;-71
2021/03/22 14:23:31;;;;;;;2.53;0.70;;;;;;;;;;4416027;32;20134;-70
2021/03/22 14:25:56;;;;;;;3.70;0.70;;;;;;;;;;4413334;32;20141;-70
2021/03/22 14:28:21;;;;;;;3.55;0.90;;;;;;;;;;4396251;32;20616;-70
2021/03/22 14:30:47;;;;;;;3.17;0.65;;;;;;;;;;4395693;32;20138;-70
2021/03/22 14:33:14;;;;;;;1.73;0.93;;;;;;;;;;4395357;32;20195;-70
2021/03/22 14:35:39;;;;;;;0.90;0.60;;;;;;;;;;4390224;32;20154;-71
2021/03/22 14:38:04;;;;;;;1.30;0.60;;;;;;;;;;4404549;32;20217;-70
2021/03/22 14:40:30;;;;;;;2.35;0.70;;;;;;;;;;4404075;32;20157;-70
2021/03/22 14:42:55;;;;;;;3.55;0.73;;;;;;;;;;4404217;32;20150;-70
2021/03/22 14:45:22;;;;;;;2.72;0.80;;;;;;;;;;4397903;32;20169;-69